Libertyville, Missouri
Current Conditions -  °F | °C
As of 7:15 PM on Tuesday 21 Oct 2014 (Local Time) from KFAM Reporting Station
Clear Clear  
Wind Chill: 57°   Ceiling: Unl
Heat Index: 57°   Visibility: 10mi
Dew Point: 43°   Wind: 5mph
Humidity: 59%   Direction: 360°N
Pressure: 30.14"   Gusts: NA
Location:  37.7535°N, 90.3478°W
Report Text: KFAM 220015Z AUTO 36004KT 10SM CLR 14/06 A3014 RMK AO1
Loading
Personal Weather Stations






























Interactive Weather Map
Tropical Storm Tracking
New forecast layout! Learn more

10-Day Weather Forecast

Advertisements
Track Severe Weather on mobile